Terminal Aerodrome Forecast
Issued by NWS

Home | Current Version | Previous Version | Graphics & Text | Print | Product List | Glossary On
Versions: 1 2 3 4 5 6 7 8 9 10 11 12 13 14 15 16 17 18 19 20 21 22 23
000
FTUS43 KLOT 210910 AAB
TAFGYY
TAF AMD
KGYY 210910Z 2109/2206 VRB04KT P6SM FEW040 BKN090 OVC250
     FM211500 12006KT P6SM BKN100 PROB30 2122/2202 5SM TSRA BKN050CB
     FM220500 18007KT P6SM BKN100=

USA.gov is the U.S. government's official web portal to all federal, state and local government web resources and services.